createdAt,value
2023-04-07T00:00:43.266Z,0.55
2023-04-07T00:01:43.006Z,0.55
2023-04-07T00:02:44.528Z,0.55
2023-04-07T00:03:43.183Z,0.55
2023-04-07T00:04:43.067Z,0.55
2023-04-07T00:05:43.122Z,0.56
2023-04-07T00:06:43.107Z,0.55
2023-04-07T00:07:55.199Z,0.55
2023-04-07T00:08:44.117Z,0.55
2023-04-07T00:09:43.141Z,0.55
2023-04-07T00:10:43.096Z,0.55
2023-04-07T00:11:43.089Z,0.55
2023-04-07T00:12:43.087Z,0.55
2023-04-07T00:13:43.070Z,0.55
2023-04-07T00:14:43.063Z,0.55
2023-04-07T00:15:43.147Z,0.55
2023-04-07T00:16:43.065Z,0.54
2023-04-07T00:17:43.203Z,0.56
2023-04-07T00:18:43.078Z,0.55
2023-04-07T00:19:43.084Z,0.55
2023-04-07T00:20:43.098Z,0.55
2023-04-07T00:21:43.130Z,0.54
2023-04-07T00:22:43.140Z,0.55
2023-04-07T00:23:43.200Z,0.55
2023-04-07T00:24:43.206Z,0.56
2023-04-07T00:25:43.257Z,0.55
2023-04-07T00:26:43.307Z,0.55
2023-04-07T00:27:43.328Z,0.55
2023-04-07T00:28:43.346Z,0.54
2023-04-07T00:29:43.372Z,0.55
2023-04-07T00:30:43.387Z,0.55
2023-04-07T00:31:43.494Z,0.55
2023-04-07T00:32:43.441Z,0.54
2023-04-07T00:33:43.407Z,0.55
2023-04-07T00:34:43.414Z,0.55
2023-04-07T00:35:43.453Z,0.54
2023-04-07T00:36:43.403Z,0.54
2023-04-07T00:37:44.143Z,0.54
2023-04-07T00:38:43.406Z,0.55
2023-04-07T00:39:43.414Z,0.54
2023-04-07T00:40:43.418Z,0.54
2023-04-07T00:41:43.435Z,0.54
2023-04-07T00:42:43.443Z,0.55
2023-04-07T00:43:43.431Z,0.54
2023-04-07T00:44:43.453Z,0.54
2023-04-07T00:45:43.474Z,0.54
2023-04-07T00:46:43.518Z,0.53
2023-04-07T00:47:43.534Z,0.54
2023-04-07T00:48:43.554Z,0.54
2023-04-07T00:49:43.502Z,0.54
2023-04-07T00:50:43.502Z,0.54
2023-04-07T00:51:43.538Z,0.54
2023-04-07T00:52:43.498Z,0.54
2023-04-07T00:53:43.508Z,0.54
2023-04-07T00:54:43.549Z,0.55
2023-04-07T00:55:43.515Z,0.55
2023-04-07T00:56:43.870Z,0.54
2023-04-07T00:57:43.487Z,0.55
2023-04-07T00:58:43.513Z,0.55
2023-04-07T00:59:43.475Z,0.54
2023-04-07T01:00:43.495Z,0.55
2023-04-07T01:01:43.587Z,0.54
2023-04-07T01:02:43.693Z,0.55
2023-04-07T01:03:43.830Z,0.54
2023-04-07T01:04:43.606Z,0.54
2023-04-07T01:05:43.481Z,0.54
2023-04-07T01:06:43.480Z,0.54
2023-04-07T01:07:43.486Z,0.55
2023-04-07T01:08:43.479Z,0.54
2023-04-07T01:09:43.482Z,0.54
2023-04-07T01:10:43.460Z,0.55
2023-04-07T01:11:43.435Z,0.54
2023-04-07T01:12:43.471Z,0.54
2023-04-07T01:13:43.457Z,0.54
2023-04-07T01:14:43.442Z,0.54
2023-04-07T01:15:43.462Z,0.54
2023-04-07T01:16:43.433Z,0.54
2023-04-07T01:17:43.484Z,0.55
2023-04-07T01:18:43.456Z,0.54
2023-04-07T01:19:43.488Z,0.54
2023-04-07T01:20:43.510Z,0.54
2023-04-07T01:21:43.522Z,0.54
2023-04-07T01:22:43.577Z,0.54
2023-04-07T01:23:43.553Z,0.54
2023-04-07T01:24:43.540Z,0.53
2023-04-07T01:25:43.584Z,0.54
2023-04-07T01:26:43.546Z,0.53
2023-04-07T01:27:43.571Z,0.53
2023-04-07T01:28:43.559Z,0.54
2023-04-07T01:29:43.624Z,0.53
2023-04-07T01:30:43.640Z,0.54
2023-04-07T01:31:43.668Z,0.54
2023-04-07T01:32:43.671Z,0.55
2023-04-07T01:33:43.636Z,0.54
2023-04-07T01:34:43.664Z,0.53
2023-04-07T01:35:43.682Z,0.54
2023-04-07T01:36:43.700Z,0.54
2023-04-07T01:37:43.674Z,0.54
2023-04-07T01:38:43.688Z,0.54
2023-04-07T01:39:43.724Z,0.53
2023-04-07T01:40:43.668Z,0.54
2023-04-07T01:41:43.642Z,0.54
2023-04-07T01:42:43.656Z,0.54
2023-04-07T01:43:44.517Z,0.53
2023-04-07T01:44:43.654Z,0.54
2023-04-07T01:45:43.683Z,0.54
2023-04-07T01:46:43.683Z,0.54
2023-04-07T01:47:43.716Z,0.55
2023-04-07T01:48:43.670Z,0.54
2023-04-07T01:49:43.693Z,0.53
2023-04-07T01:50:43.704Z,0.54
2023-04-07T01:51:43.692Z,0.53
2023-04-07T01:52:43.656Z,0.54
2023-04-07T01:53:43.664Z,0.53
2023-04-07T01:54:43.673Z,0.54
2023-04-07T01:55:43.645Z,0.54
2023-04-07T01:56:43.649Z,0.54
2023-04-07T01:57:43.637Z,0.53
2023-04-07T01:58:43.652Z,0.54
2023-04-07T01:59:43.672Z,0.54
2023-04-07T02:00:43.712Z,0.54
2023-04-07T02:01:43.720Z,0.55
2023-04-07T02:02:43.743Z,0.54
2023-04-07T02:03:43.732Z,0.54
2023-04-07T02:04:43.668Z,0.53
2023-04-07T02:05:43.649Z,0.53
2023-04-07T02:06:43.655Z,0.54
2023-04-07T02:07:43.670Z,0.53
2023-04-07T02:08:43.640Z,0.54
2023-04-07T02:09:43.629Z,0.53
2023-04-07T02:10:43.624Z,0.54
2023-04-07T02:11:43.631Z,0.54
2023-04-07T02:12:43.609Z,0.53
2023-04-07T02:13:43.605Z,0.54
2023-04-07T02:14:43.658Z,0.53
2023-04-07T02:15:43.648Z,0.54
2023-04-07T02:16:43.934Z,0.53
2023-04-07T02:17:43.674Z,0.53
2023-04-07T02:18:43.603Z,0.53
2023-04-07T02:19:43.593Z,0.53
2023-04-07T02:20:43.600Z,0.54
2023-04-07T02:21:43.624Z,0.53
2023-04-07T02:22:43.582Z,0.53
2023-04-07T02:23:43.589Z,0.53
2023-04-07T02:24:43.571Z,0.54
2023-04-07T02:25:43.598Z,0.53
2023-04-07T02:26:43.591Z,0.53
2023-04-07T02:27:43.575Z,0.55
2023-04-07T02:28:43.604Z,0.53
2023-04-07T02:29:43.601Z,0.53
2023-04-07T02:30:43.617Z,0.53
2023-04-07T02:31:43.677Z,0.53
2023-04-07T02:32:43.647Z,0.54
2023-04-07T02:33:43.606Z,0.53
2023-04-07T02:34:43.582Z,0.54
2023-04-07T02:35:43.567Z,0.54
2023-04-07T02:36:43.604Z,0.53
2023-04-07T02:37:43.593Z,0.54
2023-04-07T02:38:44.266Z,0.53
2023-04-07T02:39:43.582Z,0.53
2023-04-07T02:40:43.544Z,0.53
2023-04-07T02:41:43.530Z,0.53
2023-04-07T02:42:43.554Z,0.53
2023-04-07T02:43:43.525Z,0.53
2023-04-07T02:44:43.577Z,0.53
2023-04-07T02:45:43.593Z,0.54
2023-04-07T02:46:43.526Z,0.53
2023-04-07T02:47:43.635Z,0.52
2023-04-07T02:48:43.505Z,0.53
2023-04-07T02:49:43.514Z,0.54
2023-04-07T02:50:43.555Z,0.53
2023-04-07T02:51:43.545Z,0.53
2023-04-07T02:52:43.524Z,0.52
2023-04-07T02:53:43.500Z,0.52
2023-04-07T02:54:43.528Z,0.54
2023-04-07T02:55:43.523Z,0.53
2023-04-07T02:56:43.531Z,0.52
2023-04-07T02:57:43.498Z,0.52
2023-04-07T02:58:43.514Z,0.53
2023-04-07T02:59:43.511Z,0.53
2023-04-07T03:00:43.476Z,0.54
2023-04-07T03:01:43.571Z,0.53
2023-04-07T03:02:43.611Z,0.53
2023-04-07T03:03:43.596Z,0.53
2023-04-07T03:04:43.470Z,0.53
2023-04-07T03:05:43.533Z,0.53
2023-04-07T03:06:44.307Z,0.53
2023-04-07T03:07:43.480Z,0.52
2023-04-07T03:08:43.478Z,0.53
2023-04-07T03:09:43.499Z,0.54
2023-04-07T03:10:43.538Z,0.53
2023-04-07T03:11:43.509Z,0.52
2023-04-07T03:12:43.494Z,0.52
2023-04-07T03:13:43.524Z,0.52
2023-04-07T03:14:43.506Z,0.53
2023-04-07T03:15:43.495Z,0.52
2023-04-07T03:16:43.565Z,0.53
2023-04-07T03:17:43.534Z,0.52
2023-04-07T03:18:43.496Z,0.52
2023-04-07T03:19:43.515Z,0.52
2023-04-07T03:20:43.530Z,0.53
2023-04-07T03:21:43.515Z,0.53
2023-04-07T03:22:43.510Z,0.54
2023-04-07T03:23:43.542Z,0.53
2023-04-07T03:24:43.512Z,0.52
2023-04-07T03:25:43.835Z,0.53
2023-04-07T03:26:43.556Z,0.53
2023-04-07T03:27:43.519Z,0.53
2023-04-07T03:28:44.268Z,0.52
2023-04-07T03:29:43.588Z,0.52
2023-04-07T03:30:43.621Z,0.51
2023-04-07T03:31:43.524Z,0.53
2023-04-07T03:32:43.605Z,0.52
2023-04-07T03:33:43.607Z,0.52
2023-04-07T03:34:43.595Z,0.51
2023-04-07T03:35:43.649Z,0.52
2023-04-07T03:36:43.642Z,0.53
2023-04-07T03:37:43.666Z,0.53
2023-04-07T03:38:43.626Z,0.53
2023-04-07T03:39:43.601Z,0.53
2023-04-07T03:40:43.708Z,0.52
2023-04-07T03:41:43.674Z,0.52
2023-04-07T03:42:43.644Z,0.52
2023-04-07T03:43:46.271Z,0.52
2023-04-07T03:44:43.885Z,0.53
2023-04-07T03:45:43.921Z,0.53
2023-04-07T03:46:43.998Z,0.53
2023-04-07T03:47:43.896Z,0.53
2023-04-07T03:48:43.928Z,0.52
2023-04-07T03:49:43.920Z,0.53
2023-04-07T03:50:43.932Z,0.53
2023-04-07T03:51:43.965Z,0.53
2023-04-07T03:52:43.933Z,0.52
2023-04-07T03:53:43.968Z,0.51
2023-04-07T03:54:43.972Z,0.53
2023-04-07T03:55:43.999Z,0.52
2023-04-07T03:56:44.041Z,0.52
2023-04-07T03:57:44.007Z,0.52
2023-04-07T03:58:44.035Z,0.53
2023-04-07T03:59:44.017Z,0.52
2023-04-07T04:00:44.039Z,0.53
2023-04-07T04:01:44.113Z,0.51
2023-04-07T04:02:44.133Z,0.53
2023-04-07T04:03:44.218Z,0.53
2023-04-07T04:04:44.099Z,0.52
2023-04-07T04:05:44.116Z,0.52
2023-04-07T04:06:44.193Z,0.52
2023-04-07T04:07:44.135Z,0.53
2023-04-07T04:08:44.136Z,0.52
2023-04-07T04:09:44.125Z,0.52
2023-04-07T04:10:44.176Z,0.53
2023-04-07T04:11:44.206Z,0.52
2023-04-07T04:12:44.169Z,0.52
2023-04-07T04:13:44.204Z,0.51
2023-04-07T04:14:44.325Z,0.52
2023-04-07T04:15:44.297Z,0.51
2023-04-07T04:16:44.281Z,0.52
2023-04-07T04:17:44.331Z,0.52
2023-04-07T04:18:44.314Z,0.52
2023-04-07T04:19:44.282Z,0.52
2023-04-07T04:20:44.343Z,0.52
2023-04-07T04:21:45.273Z,0.51
2023-04-07T04:22:44.376Z,0.53
2023-04-07T04:23:44.358Z,0.53
2023-04-07T04:24:44.357Z,0.52
2023-04-07T04:25:44.396Z,0.52
2023-04-07T04:26:44.395Z,0.52
2023-04-07T04:27:44.422Z,0.52
2023-04-07T04:28:44.428Z,0.52
2023-04-07T04:29:44.439Z,0.52
2023-04-07T04:30:44.474Z,0.53
2023-04-07T04:31:44.589Z,0.52
2023-04-07T04:32:44.533Z,0.52
2023-04-07T04:33:44.540Z,0.53
2023-04-07T04:34:44.518Z,0.53
2023-04-07T04:35:44.574Z,0.53
2023-04-07T04:36:44.614Z,0.52
2023-04-07T04:37:44.621Z,0.52
2023-04-07T04:38:44.616Z,0.51
2023-04-07T04:39:44.652Z,0.52
2023-04-07T04:40:44.656Z,0.52
2023-04-07T04:41:44.686Z,0.51
2023-04-07T04:42:44.695Z,0.52
2023-04-07T04:43:45.207Z,0.52
2023-04-07T04:44:44.733Z,0.52
2023-04-07T04:45:44.736Z,0.53
2023-04-07T04:46:44.850Z,0.52
2023-04-07T04:47:44.835Z,0.53
2023-04-07T04:48:44.801Z,0.52
2023-04-07T04:49:44.944Z,0.52
2023-04-07T04:50:44.879Z,0.53
2023-04-07T04:51:44.876Z,0.53
2023-04-07T04:52:44.933Z,0.52
2023-04-07T04:53:44.912Z,0.53
2023-04-07T04:54:44.923Z,0.51
2023-04-07T04:55:44.929Z,0.52
2023-04-07T04:56:44.954Z,0.52
2023-04-07T04:57:44.978Z,0.53
2023-04-07T04:58:45.015Z,0.53
2023-04-07T04:59:45.021Z,0.52
2023-04-07T05:00:45.095Z,0.52
2023-04-07T05:01:45.162Z,0.52
2023-04-07T05:02:45.270Z,0.51
2023-04-07T05:03:45.173Z,0.52
2023-04-07T05:04:45.190Z,0.52
2023-04-07T05:05:45.137Z,0.52
2023-04-07T05:06:45.212Z,0.51
2023-04-07T05:07:45.176Z,0.51
2023-04-07T05:08:45.208Z,0.52
2023-04-07T05:09:45.221Z,0.52
2023-04-07T05:10:46.695Z,0.52
2023-04-07T05:11:45.266Z,0.52
2023-04-07T05:12:45.337Z,0.51
2023-04-07T05:13:45.366Z,0.53
2023-04-07T05:14:45.359Z,0.52
2023-04-07T05:15:45.368Z,0.52
2023-04-07T05:16:45.413Z,0.52
2023-04-07T05:17:45.503Z,0.53
2023-04-07T05:18:45.433Z,0.52
2023-04-07T05:19:45.460Z,0.51
2023-04-07T05:20:45.535Z,0.52
2023-04-07T05:21:45.495Z,0.51
2023-04-07T05:22:45.534Z,0.52
2023-04-07T05:23:45.565Z,0.51
2023-04-07T05:24:45.604Z,0.52
2023-04-07T05:25:45.626Z,0.52
2023-04-07T05:26:45.655Z,0.52
2023-04-07T05:27:45.639Z,0.52
2023-04-07T05:28:45.654Z,0.52
2023-04-07T05:29:45.681Z,0.52
2023-04-07T05:30:45.724Z,0.52
2023-04-07T05:31:45.823Z,0.52
2023-04-07T05:32:45.793Z,0.53
2023-04-07T05:33:45.813Z,0.52
2023-04-07T05:34:45.822Z,0.53
2023-04-07T05:35:45.843Z,0.53
2023-04-07T05:36:45.800Z,0.53
2023-04-07T05:37:45.812Z,0.53
2023-04-07T05:38:45.802Z,0.53
2023-04-07T05:39:45.806Z,0.54
2023-04-07T05:40:45.832Z,0.53
2023-04-07T05:41:45.848Z,0.54
2023-04-07T05:42:45.909Z,0.53
2023-04-07T05:43:45.948Z,0.55
2023-04-07T05:44:45.987Z,0.54
2023-04-07T05:45:46.116Z,0.54
2023-04-07T05:46:46.150Z,0.53
2023-04-07T05:47:46.217Z,0.55
2023-04-07T05:48:46.265Z,0.54
2023-04-07T05:49:46.328Z,0.54
2023-04-07T05:50:46.403Z,0.53
2023-04-07T05:51:47.615Z,0.54
2023-04-07T05:52:46.529Z,0.53
2023-04-07T05:53:46.590Z,0.54
2023-04-07T05:54:46.616Z,0.54
2023-04-07T05:55:46.678Z,0.54
2023-04-07T05:56:46.749Z,0.54
2023-04-07T05:57:46.820Z,0.53
2023-04-07T05:58:46.908Z,0.54
2023-04-07T05:59:46.929Z,0.55
2023-04-07T06:00:47.037Z,0.54
2023-04-07T06:01:47.102Z,0.54
2023-04-07T06:02:47.348Z,0.53
2023-04-07T06:03:47.423Z,0.53
2023-04-07T06:04:47.272Z,0.55
2023-04-07T06:05:47.334Z,0.54
2023-04-07T06:06:47.393Z,0.54
2023-04-07T06:07:47.476Z,0.54
2023-04-07T06:08:47.485Z,0.54
2023-04-07T06:09:47.571Z,0.53
2023-04-07T06:10:47.620Z,0.53
2023-04-07T06:11:47.686Z,0.53
2023-04-07T06:12:47.765Z,0.53
2023-04-07T06:13:48.137Z,0.55
2023-04-07T06:14:47.914Z,0.54
2023-04-07T06:15:47.970Z,0.53
2023-04-07T06:16:48.042Z,0.53
2023-04-07T06:17:48.147Z,0.53
2023-04-07T06:18:48.150Z,0.52
2023-04-07T06:19:48.207Z,0.53
2023-04-07T06:20:48.276Z,0.53
2023-04-07T06:21:48.286Z,0.53
2023-04-07T06:22:48.351Z,0.54
2023-04-07T06:23:48.652Z,0.53
2023-04-07T06:24:48.491Z,0.54
2023-04-07T06:25:48.590Z,0.53
2023-04-07T06:26:48.589Z,0.53
2023-04-07T06:27:48.648Z,0.53
2023-04-07T06:28:48.724Z,0.53
2023-04-07T06:29:48.758Z,0.53
2023-04-07T06:30:48.821Z,0.53
2023-04-07T06:31:48.896Z,0.53
2023-04-07T06:32:48.981Z,0.53
2023-04-07T06:33:49.108Z,0.52
2023-04-07T06:34:49.043Z,0.53
2023-04-07T06:35:49.117Z,0.54
2023-04-07T06:36:49.157Z,0.53
2023-04-07T06:37:49.203Z,0.52
2023-04-07T06:38:49.221Z,0.53
2023-04-07T06:39:49.283Z,0.53
2023-04-07T06:40:49.360Z,0.53
2023-04-07T06:41:49.369Z,0.53
2023-04-07T06:42:49.453Z,0.53
2023-04-07T06:43:49.723Z,0.53
2023-04-07T06:44:49.541Z,0.52
2023-04-07T06:45:49.587Z,0.53
2023-04-07T06:46:49.613Z,0.52
2023-04-07T06:47:49.800Z,0.53
2023-04-07T06:48:49.722Z,0.52
2023-04-07T06:49:49.734Z,0.53
2023-04-07T06:50:49.801Z,0.53
2023-04-07T06:51:49.831Z,0.52
2023-04-07T06:52:49.883Z,0.54
2023-04-07T06:53:50.163Z,0.53
2023-04-07T06:54:49.981Z,0.53
2023-04-07T06:55:50.054Z,0.54
2023-04-07T06:56:50.064Z,0.53
2023-04-07T06:57:50.082Z,0.53
2023-04-07T06:58:50.115Z,0.54
2023-04-07T06:59:50.171Z,0.55
2023-04-07T07:00:50.200Z,0.53
2023-04-07T07:01:50.362Z,0.52
2023-04-07T07:02:50.452Z,0.53
2023-04-07T07:03:50.633Z,0.53
2023-04-07T07:04:50.328Z,0.53
2023-04-07T07:05:50.554Z,0.53
2023-04-07T07:06:50.410Z,0.54
2023-04-07T07:07:50.425Z,0.52
2023-04-07T07:08:50.450Z,0.54
2023-04-07T07:09:50.514Z,0.54
2023-04-07T07:10:50.527Z,0.54
2023-04-07T07:11:50.559Z,0.54
2023-04-07T07:12:50.566Z,0.54
2023-04-07T07:13:50.748Z,0.53
2023-04-07T07:14:50.633Z,0.54
2023-04-07T07:15:50.674Z,0.53
2023-04-07T07:16:50.697Z,0.55
2023-04-07T07:17:50.780Z,0.53
2023-04-07T07:18:50.733Z,0.54
2023-04-07T07:19:50.751Z,0.54
2023-04-07T07:20:50.845Z,0.53
2023-04-07T07:21:50.786Z,0.54
2023-04-07T07:22:50.857Z,0.54
2023-04-07T07:23:50.872Z,0.53
2023-04-07T07:24:50.895Z,0.53
2023-04-07T07:25:50.917Z,0.53
2023-04-07T07:26:50.933Z,0.53
2023-04-07T07:27:50.911Z,0.54
2023-04-07T07:28:50.923Z,0.53
2023-04-07T07:29:50.935Z,0.54
2023-04-07T07:30:51.001Z,0.55
2023-04-07T07:31:50.975Z,0.55
2023-04-07T07:32:51.044Z,0.54
2023-04-07T07:33:50.999Z,0.54
2023-04-07T07:34:50.981Z,0.55
2023-04-07T07:35:50.955Z,0.55
2023-04-07T07:36:51.001Z,0.55
2023-04-07T07:37:50.944Z,0.54
2023-04-07T07:38:50.908Z,0.54
2023-04-07T07:39:50.941Z,0.55
2023-04-07T07:40:51.342Z,0.55
2023-04-07T07:41:50.955Z,0.55
2023-04-07T07:42:50.988Z,0.55
2023-04-07T07:43:50.994Z,0.55
2023-04-07T07:44:51.032Z,0.54
2023-04-07T07:45:51.125Z,0.55
2023-04-07T07:46:51.296Z,0.55
2023-04-07T07:47:51.246Z,0.55
2023-04-07T07:48:51.492Z,0.56
2023-04-07T07:49:51.309Z,0.57
2023-04-07T07:50:51.360Z,0.56
2023-04-07T07:51:51.412Z,0.57
2023-04-07T07:52:51.477Z,0.57
2023-04-07T07:53:51.660Z,0.57
2023-04-07T07:54:51.619Z,0.57
2023-04-07T07:55:51.640Z,0.56
2023-04-07T07:56:51.696Z,0.56
2023-04-07T07:57:51.765Z,0.57
2023-04-07T07:58:51.838Z,0.57
2023-04-07T07:59:51.858Z,0.56
2023-04-07T08:00:51.938Z,0.57
2023-04-07T08:01:52.042Z,0.57
2023-04-07T08:02:52.094Z,0.56
2023-04-07T08:03:52.710Z,0.56
2023-04-07T08:04:52.226Z,0.56
2023-04-07T08:05:52.229Z,0.56
2023-04-07T08:06:52.272Z,0.55
2023-04-07T08:07:54.605Z,0.55
2023-04-07T08:08:52.381Z,0.55
2023-04-07T08:09:52.548Z,0.55
2023-04-07T08:10:52.468Z,0.55
2023-04-07T08:11:52.557Z,0.54
2023-04-07T08:12:52.582Z,0.54
2023-04-07T08:13:52.633Z,0.55
2023-04-07T08:14:52.704Z,0.55
2023-04-07T08:15:52.800Z,0.54
2023-04-07T08:16:52.840Z,0.54
2023-04-07T08:17:54.721Z,0.53
2023-04-07T08:18:52.885Z,0.54
2023-04-07T08:19:52.869Z,0.54
2023-04-07T08:20:52.906Z,0.54
2023-04-07T08:21:52.888Z,0.53
2023-04-07T08:22:52.843Z,0.53
2023-04-07T08:23:52.892Z,0.54
2023-04-07T08:24:52.853Z,0.53
2023-04-07T08:25:53.380Z,0.54
2023-04-07T08:26:52.836Z,0.53
2023-04-07T08:27:53.403Z,0.53
2023-04-07T08:28:53.416Z,0.53
2023-04-07T08:29:52.823Z,0.53
2023-04-07T08:30:52.800Z,0.52
2023-04-07T08:31:52.862Z,0.54
2023-04-07T08:32:52.869Z,0.52
2023-04-07T08:33:52.817Z,0.53
2023-04-07T08:34:52.765Z,0.52
2023-04-07T08:35:52.809Z,0.52
2023-04-07T08:36:52.825Z,0.53
2023-04-07T08:37:52.769Z,0.52
2023-04-07T08:38:52.784Z,0.52
2023-04-07T08:39:52.751Z,0.52
2023-04-07T08:40:52.725Z,0.53
2023-04-07T08:41:52.733Z,0.53
2023-04-07T08:42:52.750Z,0.51
2023-04-07T08:43:52.738Z,0.52
2023-04-07T08:44:52.738Z,0.51
2023-04-07T08:45:53.729Z,0.51
2023-04-07T08:46:52.735Z,0.52
2023-04-07T08:47:52.788Z,0.52
2023-04-07T08:48:52.678Z,0.53
2023-04-07T08:49:52.712Z,0.51
2023-04-07T08:50:52.787Z,0.52
2023-04-07T08:51:52.671Z,0.51
2023-04-07T08:52:52.670Z,0.52
2023-04-07T08:53:52.631Z,0.51
2023-04-07T08:54:52.678Z,0.51
2023-04-07T08:55:52.646Z,0.50
2023-04-07T08:56:52.630Z,0.50
2023-04-07T08:57:52.632Z,0.50
2023-04-07T08:58:52.624Z,0.52
2023-04-07T08:59:52.647Z,0.50
2023-04-07T09:00:52.733Z,0.51
2023-04-07T09:01:52.618Z,0.51
2023-04-07T09:02:52.629Z,0.52
2023-04-07T09:03:52.924Z,0.51
2023-04-07T09:04:52.571Z,0.52
2023-04-07T09:05:52.586Z,0.51
2023-04-07T09:06:52.592Z,0.51
2023-04-07T09:07:52.559Z,0.51
2023-04-07T09:08:52.547Z,0.51
2023-04-07T09:09:52.552Z,0.51
2023-04-07T09:10:52.544Z,0.51
2023-04-07T09:11:52.528Z,0.52
2023-04-07T09:12:52.543Z,0.50
2023-04-07T09:13:52.499Z,0.50
2023-04-07T09:14:52.501Z,0.51
2023-04-07T09:15:52.885Z,0.51
2023-04-07T09:16:52.573Z,0.50
2023-04-07T09:17:52.601Z,0.52
2023-04-07T09:18:52.502Z,0.52
2023-04-07T09:19:52.570Z,0.51
2023-04-07T09:20:52.514Z,0.52
2023-04-07T09:21:52.551Z,0.52
2023-04-07T09:22:52.595Z,0.51
2023-04-07T09:23:52.650Z,0.51
2023-04-07T09:24:52.672Z,0.52
2023-04-07T09:25:52.671Z,0.52
2023-04-07T09:26:52.724Z,0.53
2023-04-07T09:27:52.700Z,0.51
2023-04-07T09:28:52.743Z,0.51
2023-04-07T09:29:52.754Z,0.52
2023-04-07T09:30:52.825Z,0.51
2023-04-07T09:31:53.391Z,0.52
2023-04-07T09:32:52.917Z,0.51
2023-04-07T09:33:52.873Z,0.52
2023-04-07T09:34:52.914Z,0.52
2023-04-07T09:35:52.969Z,0.51
2023-04-07T09:36:52.937Z,0.53
2023-04-07T09:37:52.988Z,0.52
2023-04-07T09:38:52.976Z,0.52
2023-04-07T09:39:53.053Z,0.52
2023-04-07T09:40:53.082Z,0.51
2023-04-07T09:41:53.085Z,0.51
2023-04-07T09:42:53.911Z,0.51
2023-04-07T09:43:53.128Z,0.51
2023-04-07T09:44:53.146Z,0.52
2023-04-07T09:45:53.244Z,0.52
2023-04-07T09:46:53.288Z,0.51
2023-04-07T09:47:53.296Z,0.51
2023-04-07T09:48:53.295Z,0.51
2023-04-07T09:49:53.334Z,0.51
2023-04-07T09:50:53.373Z,0.51
2023-04-07T09:51:53.392Z,0.51
2023-04-07T09:52:53.608Z,0.50
2023-04-07T09:53:53.466Z,0.50
2023-04-07T09:54:53.533Z,0.50
2023-04-07T09:55:53.571Z,0.50
2023-04-07T09:56:54.405Z,0.51
2023-04-07T09:57:53.623Z,0.51
2023-04-07T09:58:53.730Z,0.51
2023-04-07T09:59:53.687Z,0.50
2023-04-07T10:00:53.760Z,0.50
2023-04-07T10:01:56.284Z,0.50
2023-04-07T10:02:56.721Z,0.52
2023-04-07T10:03:53.818Z,0.52
2023-04-07T10:04:53.811Z,0.52
2023-04-07T10:05:53.752Z,0.52
2023-04-07T10:06:53.745Z,0.51
2023-04-07T10:07:53.738Z,0.51
2023-04-07T10:08:53.764Z,0.51
2023-04-07T10:09:53.766Z,0.51
2023-04-07T10:10:53.720Z,0.51
2023-04-07T10:11:53.720Z,0.52
2023-04-07T10:12:53.700Z,0.52
2023-04-07T10:13:53.708Z,0.51
2023-04-07T10:14:53.740Z,0.51
2023-04-07T10:15:53.687Z,0.51
2023-04-07T10:16:53.695Z,0.51
2023-04-07T10:17:53.751Z,0.52
2023-04-07T10:18:53.679Z,0.52
2023-04-07T10:19:53.687Z,0.52
2023-04-07T10:20:53.730Z,0.51
2023-04-07T10:21:53.633Z,0.52
2023-04-07T10:22:53.637Z,0.51
2023-04-07T10:23:53.631Z,0.51
2023-04-07T10:24:53.601Z,0.52
2023-04-07T10:25:53.615Z,0.51
2023-04-07T10:26:53.589Z,0.51
2023-04-07T10:27:53.601Z,0.51
2023-04-07T10:28:53.581Z,0.51
2023-04-07T10:29:53.654Z,0.51
2023-04-07T10:30:53.631Z,0.51
2023-04-07T10:31:53.572Z,0.51
2023-04-07T10:32:53.654Z,0.52
2023-04-07T10:33:53.548Z,0.50
2023-04-07T10:34:53.734Z,0.51
2023-04-07T10:35:53.612Z,0.51
2023-04-07T10:36:53.552Z,0.51
2023-04-07T10:37:53.636Z,0.51
2023-04-07T10:38:53.548Z,0.51
2023-04-07T10:39:53.574Z,0.51
2023-04-07T10:40:53.524Z,0.51
2023-04-07T10:41:53.514Z,0.51
2023-04-07T10:42:53.520Z,0.51
2023-04-07T10:43:53.489Z,0.51
2023-04-07T10:44:53.494Z,0.51
2023-04-07T10:45:53.573Z,0.51
2023-04-07T10:46:53.493Z,0.51
2023-04-07T10:47:53.515Z,0.51
2023-04-07T10:48:53.449Z,0.51
2023-04-07T10:49:53.450Z,0.50
2023-04-07T10:50:53.483Z,0.51
2023-04-07T10:51:53.537Z,0.51
2023-04-07T10:52:53.579Z,0.51
2023-04-07T10:53:53.642Z,0.51
2023-04-07T10:54:53.709Z,0.51
2023-04-07T10:55:53.816Z,0.51
2023-04-07T10:56:53.796Z,0.50
2023-04-07T10:57:53.853Z,0.51
2023-04-07T10:58:53.925Z,0.52
2023-04-07T10:59:53.953Z,0.51
2023-04-07T11:00:54.035Z,0.51
2023-04-07T11:01:54.168Z,0.51
2023-04-07T11:02:54.478Z,0.51
2023-04-07T11:03:54.263Z,0.52
2023-04-07T11:04:54.276Z,0.51
2023-04-07T11:05:54.311Z,0.51
2023-04-07T11:06:54.381Z,0.52
2023-04-07T11:07:54.451Z,0.51
2023-04-07T11:08:54.485Z,0.52
2023-04-07T11:09:54.564Z,0.51
2023-04-07T11:10:54.679Z,0.50
2023-04-07T11:11:54.660Z,0.51
2023-04-07T11:12:54.731Z,0.51
2023-04-07T11:13:54.878Z,0.50
2023-04-07T11:14:54.897Z,0.51
2023-04-07T11:15:54.963Z,0.51
2023-04-07T11:16:54.976Z,0.51
2023-04-07T11:17:55.041Z,0.52
2023-04-07T11:18:55.067Z,0.51
2023-04-07T11:19:55.144Z,0.51
2023-04-07T11:20:55.209Z,0.51
2023-04-07T11:21:55.251Z,0.52
2023-04-07T11:22:55.352Z,0.51
2023-04-07T11:23:55.372Z,0.51
2023-04-07T11:24:55.429Z,0.51
2023-04-07T11:25:55.534Z,0.52
2023-04-07T11:26:55.564Z,0.52
2023-04-07T11:27:55.607Z,0.51
2023-04-07T11:28:55.659Z,0.51
2023-04-07T11:29:55.718Z,0.52
2023-04-07T11:30:55.857Z,0.52
2023-04-07T11:31:55.813Z,0.52
2023-04-07T11:32:55.912Z,0.51
2023-04-07T11:33:55.935Z,0.51
2023-04-07T11:34:56.034Z,0.51
2023-04-07T11:35:56.147Z,0.52
2023-04-07T11:36:56.120Z,0.51
2023-04-07T11:37:56.211Z,0.51
2023-04-07T11:38:56.237Z,0.52
2023-04-07T11:39:56.344Z,0.51
2023-04-07T11:40:56.399Z,0.51
2023-04-07T11:41:56.512Z,0.51
2023-04-07T11:42:56.483Z,0.51
2023-04-07T11:43:56.565Z,0.52
2023-04-07T11:44:56.619Z,0.51
2023-04-07T11:45:56.697Z,0.51
2023-04-07T11:46:56.905Z,0.52
2023-04-07T11:47:56.863Z,0.51
2023-04-07T11:48:56.867Z,0.51
2023-04-07T11:49:56.852Z,0.52
2023-04-07T11:50:56.887Z,0.50
2023-04-07T11:51:56.903Z,0.51
2023-04-07T11:52:56.981Z,0.51
2023-04-07T11:53:57.250Z,0.51
2023-04-07T11:54:57.085Z,0.51
2023-04-07T11:55:57.151Z,0.52
2023-04-07T11:56:57.192Z,0.51
2023-04-07T11:57:57.232Z,0.51
2023-04-07T11:58:57.298Z,0.51
2023-04-07T11:59:57.400Z,0.51
2023-04-07T12:00:57.446Z,0.51
2023-04-07T12:01:58.107Z,0.51
2023-04-07T12:02:57.675Z,0.51
2023-04-07T12:03:57.706Z,0.51
2023-04-07T12:04:57.781Z,0.50
2023-04-07T12:05:57.677Z,0.50
2023-04-07T12:06:57.745Z,0.51
2023-04-07T12:07:57.848Z,0.52
2023-04-07T12:08:57.856Z,0.51
2023-04-07T12:09:57.901Z,0.51
2023-04-07T12:10:57.969Z,0.50
2023-04-07T12:11:58.069Z,0.50
2023-04-07T12:12:59.516Z,0.51
2023-04-07T12:13:58.133Z,0.51
2023-04-07T12:14:58.181Z,0.50
2023-04-07T12:15:58.264Z,0.50
2023-04-07T12:16:58.432Z,0.51
2023-04-07T12:17:58.438Z,0.52
2023-04-07T12:18:58.391Z,0.51
2023-04-07T12:19:58.444Z,0.52
2023-04-07T12:20:58.519Z,0.52
2023-04-07T12:21:58.563Z,0.51
2023-04-07T12:22:58.636Z,0.51
2023-04-07T12:23:58.686Z,0.51
2023-04-07T12:24:58.737Z,0.50
2023-04-07T12:25:58.809Z,0.50
2023-04-07T12:26:58.878Z,0.51
2023-04-07T12:27:58.906Z,0.51
2023-04-07T12:28:58.976Z,0.51
2023-04-07T12:29:59.039Z,0.52
2023-04-07T12:30:59.117Z,0.51
2023-04-07T12:31:59.371Z,0.51
2023-04-07T12:32:59.231Z,0.52
2023-04-07T12:33:59.283Z,0.52
2023-04-07T12:34:59.288Z,0.52
2023-04-07T12:35:59.416Z,0.52
2023-04-07T12:36:59.428Z,0.52
2023-04-07T12:37:59.478Z,0.51
2023-04-07T12:38:59.540Z,0.52
2023-04-07T12:39:59.600Z,0.53
2023-04-07T12:40:59.670Z,0.52
2023-04-07T12:41:59.760Z,0.52
2023-04-07T12:42:59.793Z,0.52
2023-04-07T12:43:59.886Z,0.52
2023-04-07T12:44:59.935Z,0.53
2023-04-07T12:46:00.077Z,0.52
2023-04-07T12:47:00.055Z,0.53
2023-04-07T12:48:00.127Z,0.53
2023-04-07T12:49:00.157Z,0.54
2023-04-07T12:50:00.209Z,0.53
2023-04-07T12:51:00.302Z,0.53
2023-04-07T12:52:00.369Z,0.55
2023-04-07T12:53:00.454Z,0.55
2023-04-07T12:54:00.542Z,0.54
2023-04-07T12:55:00.506Z,0.54
2023-04-07T12:56:00.583Z,0.54
2023-04-07T12:57:01.489Z,0.55
2023-04-07T12:58:00.706Z,0.54
2023-04-07T12:59:00.737Z,0.55
2023-04-07T13:00:00.781Z,0.55
2023-04-07T13:01:01.550Z,0.55
2023-04-07T13:02:01.072Z,0.54
2023-04-07T13:03:01.057Z,0.55
2023-04-07T13:04:01.041Z,0.55
2023-04-07T13:05:01.114Z,0.54
2023-04-07T13:06:01.125Z,0.54
2023-04-07T13:07:01.164Z,0.54
2023-04-07T13:08:01.183Z,0.54
2023-04-07T13:09:01.227Z,0.54
2023-04-07T13:10:01.321Z,0.55
2023-04-07T13:11:01.339Z,0.55
2023-04-07T13:12:01.379Z,0.54
2023-04-07T13:13:01.414Z,0.55
2023-04-07T13:14:01.705Z,0.55
2023-04-07T13:15:01.527Z,0.55
2023-04-07T13:16:01.582Z,0.55
2023-04-07T13:17:01.695Z,0.55
2023-04-07T13:18:01.684Z,0.55
2023-04-07T13:19:01.725Z,0.55